Vestmannaeyjar, Iceland
Current Conditions -  °F | °C
As of 7:00 PM on Monday 22 Dec 2014 (Local Time) from BIRK Reporting Station
Rain Showers Rain Showers  
Wind Chill: 28°   Ceiling: 4000
Heat Index: 36°   Visibility: 6mi
Dew Point: 28°   Wind: 10mph
Humidity: 75%   Direction: 10°N
Pressure: 29.15"   Gusts: NA
Location:  63.44°N, 20.27°W
Report Text: BIRK 221900Z 01009KT 340V060 9999 VCSH SCT023 BKN040 02/M02 Q0987 R01/790153
Loading
Personal Weather Stations






























Interactive Weather Map New forecast layout! Learn more

10-Day Weather Forecast

Advertisements
Track Severe Weather on mobile